Little Falls-Morrison County-Lindbergh field


Codes: KLXL/
Name: Little Falls-Morrison County-Lindbergh field
City: Little Falls
Country: United States
Elevation: 1123 ft.

Photos at Little Falls-Morrison County-Lindbergh field


   Photos courtesy of SpottingLog. You can add your own sightings and photos by signing up for a free trial today.



No photos found.

Weather at Little Falls-Morrison County-Lindbergh field


Time (UTC)DescriptionTempratureWindCloud coverageVisibilityPressureHumidity
16-Jun-2024 12:00Light Rain18°C7 mph, S97%3423m1003hPa89%
16-Jun-2024 15:00Light Rain21°C13 mph, S99%10000m1001hPa88%
16-Jun-2024 18:00Overcast Clouds24°C7 mph, SW99%10000m1001hPa83%
16-Jun-2024 21:00Light Rain24°C9 mph, NW99%10000m1002hPa86%
17-Jun-2024 00:00Light Rain23°C11 mph, NW97%10000m1005hPa81%
17-Jun-2024 03:00Overcast Clouds18°C11 mph, NW99%10000m1009hPa65%
17-Jun-2024 06:00Broken Clouds14°C4 mph, NW58%10000m1010hPa74%
17-Jun-2024 09:00Scattered Clouds13°C4 mph, N49%10000m1010hPa69%
17-Jun-2024 12:00Light Rain13°C7 mph, W74%1688m1013hPa81%
17-Jun-2024 15:00Heavy Intensity Rain11°C4 mph, NW100%1816m1014hPa98%
17-Jun-2024 18:00Moderate Rain12°C7 mph, E100%10000m1011hPa98%
17-Jun-2024 21:00Light Rain13°C11 mph, E100%10000m1010hPa94%
18-Jun-2024 00:00Moderate Rain15°C7 mph, E100%5032m1008hPa98%
18-Jun-2024 03:00Moderate Rain16°C9 mph, E100%364m1006hPa99%
18-Jun-2024 06:00Light Rain17°C11 mph, E100%162m1003hPa99%
18-Jun-2024 09:00Moderate Rain22°C16 mph, S100%10000m1000hPa96%
18-Jun-2024 12:00Moderate Rain21°C11 mph, S98%7639m1001hPa96%
18-Jun-2024 15:00Moderate Rain23°C16 mph, S100%10000m1001hPa94%
18-Jun-2024 18:00Light Rain25°C20 mph, S99%10000m1001hPa89%
18-Jun-2024 21:00Light Rain27°C20 mph, SW44%10000m1001hPa87%
19-Jun-2024 00:00Moderate Rain20°C13 mph, W73%4013m1005hPa95%
19-Jun-2024 03:00Moderate Rain14°C9 mph, W100%10000m1009hPa96%
19-Jun-2024 06:00Overcast Clouds13°C9 mph, W95%10000m1015hPa93%
19-Jun-2024 09:00Overcast Clouds12°C9 mph, NW100%10000m1017hPa93%
19-Jun-2024 12:00Overcast Clouds11°C11 mph, NW100%10000m1020hPa91%
19-Jun-2024 15:00Overcast Clouds16°C7 mph, N100%10000m1022hPa73%
19-Jun-2024 18:00Overcast Clouds19°C7 mph, N100%10000m1024hPa63%
19-Jun-2024 21:00Overcast Clouds20°C4 mph, NW100%10000m1024hPa61%
20-Jun-2024 00:00Broken Clouds20°C2 mph, N67%10000m1024hPa71%
20-Jun-2024 03:00Scattered Clouds15°C4 mph, NW40%10000m1026hPa80%
20-Jun-2024 06:00Broken Clouds15°C4 mph, NE63%10000m1026hPa74%
20-Jun-2024 09:00Overcast Clouds14°C4 mph, NE89%10000m1027hPa63%
20-Jun-2024 12:00Overcast Clouds13°C7 mph, NE94%10000m1027hPa73%
20-Jun-2024 15:00Overcast Clouds17°C9 mph, SE99%10000m1027hPa76%
20-Jun-2024 18:00Light Rain16°C4 mph, SE100%10000m1028hPa93%
20-Jun-2024 21:00Light Rain16°C7 mph, E100%10000m1026hPa91%
21-Jun-2024 00:00Light Rain16°C7 mph, E100%10000m1024hPa95%
21-Jun-2024 03:00Light Rain16°C7 mph, E100%10000m1023hPa98%
21-Jun-2024 06:00Light Rain16°C7 mph, SE100%58m1021hPa99%
21-Jun-2024 09:00Moderate Rain18°C4 mph, E100%102m1019hPa99%